createdAt,value
2018-06-04T00:00:30.359Z,19.79
2018-06-04T00:03:00.327Z,19.79
2018-06-04T00:05:29.272Z,19.74
2018-06-04T00:07:58.447Z,19.79
2018-06-04T00:10:27.387Z,19.80
2018-06-04T00:12:56.351Z,19.81
2018-06-04T00:15:25.412Z,19.71
2018-06-04T00:17:54.333Z,19.73
2018-06-04T00:20:23.836Z,19.68
2018-06-04T00:22:52.840Z,19.71
2018-06-04T00:25:22.448Z,19.72
2018-06-04T00:27:51.373Z,19.72
2018-06-04T00:30:21.319Z,19.72
2018-06-04T00:32:50.363Z,19.72
2018-06-04T00:35:19.276Z,19.71
2018-06-04T00:37:48.324Z,19.69
2018-06-04T00:40:17.332Z,19.69
2018-06-04T00:42:46.386Z,19.68
2018-06-04T00:45:15.584Z,19.62
2018-06-04T00:47:45.293Z,19.63
2018-06-04T00:50:14.330Z,19.62
2018-06-04T00:52:43.360Z,19.57
2018-06-04T00:55:12.344Z,19.57
2018-06-04T00:57:41.300Z,19.51
2018-06-04T01:00:10.988Z,19.42
2018-06-04T01:02:39.995Z,19.28
2018-06-04T01:05:08.951Z,19.20
2018-06-04T01:07:38.047Z,19.10
2018-06-04T01:10:07.118Z,19.03
2018-06-04T01:12:36.077Z,18.94
2018-06-04T01:15:05.241Z,18.89
2018-06-04T01:17:34.182Z,18.85
2018-06-04T01:20:03.116Z,18.84
2018-06-04T01:22:32.228Z,18.83
2018-06-04T01:25:01.217Z,18.79
2018-06-04T01:27:30.296Z,18.69
2018-06-04T01:29:59.420Z,18.59
2018-06-04T01:32:28.369Z,18.51
2018-06-04T01:34:57.406Z,18.48
2018-06-04T01:37:26.448Z,18.50
2018-06-04T01:39:55.450Z,18.53
2018-06-04T01:42:25.411Z,18.58
2018-06-04T01:44:54.391Z,18.63
2018-06-04T01:47:23.329Z,18.68
2018-06-04T01:49:52.265Z,18.69
2018-06-04T01:52:21.383Z,18.70
2018-06-04T01:54:50.820Z,18.72
2018-06-04T01:57:20.514Z,18.74
2018-06-04T01:59:49.809Z,18.78
2018-06-04T02:02:18.746Z,18.72
2018-06-04T02:04:48.786Z,18.67
2018-06-04T02:07:18.212Z,18.62
2018-06-04T02:09:47.134Z,18.61
2018-06-04T02:12:17.194Z,18.56
2018-06-04T02:14:46.648Z,18.51
2018-06-04T02:17:15.661Z,18.42
2018-06-04T02:19:45.328Z,18.45
2018-06-04T02:22:15.136Z,18.39
2018-06-04T02:24:44.539Z,18.33
2018-06-04T02:27:14.088Z,18.30
2018-06-04T02:29:43.113Z,18.27
2018-06-04T02:32:13.010Z,18.29
2018-06-04T02:34:42.673Z,18.32
2018-06-04T02:37:12.229Z,18.33
2018-06-04T02:39:41.263Z,18.33
2018-06-04T02:42:10.408Z,18.36
2018-06-04T02:44:39.365Z,18.40
2018-06-04T02:47:08.322Z,18.44
2018-06-04T02:49:37.384Z,18.48
2018-06-04T02:52:06.446Z,18.49
2018-06-04T02:54:36.125Z,18.50
2018-06-04T02:57:05.305Z,18.52
2018-06-04T02:59:34.592Z,18.54
2018-06-04T03:02:03.561Z,18.54
2018-06-04T03:04:33.185Z,18.52
2018-06-04T03:07:02.729Z,18.44
2018-06-04T03:09:31.689Z,18.39
2018-06-04T03:12:00.721Z,18.31
2018-06-04T03:14:31.529Z,18.27
2018-06-04T03:17:00.567Z,18.14
2018-06-04T03:19:29.582Z,18.12
2018-06-04T03:21:58.790Z,18.16
2018-06-04T03:24:27.836Z,18.24
2018-06-04T03:26:56.814Z,18.27
2018-06-04T03:29:26.534Z,18.28
2018-06-04T03:31:57.056Z,18.32
2018-06-04T03:34:26.071Z,18.32
2018-06-04T03:36:55.023Z,18.38
2018-06-04T03:39:24.115Z,18.44
2018-06-04T03:41:53.114Z,18.50
2018-06-04T03:44:22.149Z,18.57
2018-06-04T03:46:51.207Z,18.64
2018-06-04T03:49:20.179Z,18.66
2018-06-04T03:51:49.248Z,18.72
2018-06-04T03:54:18.376Z,18.83
2018-06-04T03:56:47.417Z,18.89
2018-06-04T03:59:16.391Z,18.99
2018-06-04T04:01:45.488Z,19.08
2018-06-04T04:04:14.490Z,19.16
2018-06-04T04:06:43.421Z,19.26
2018-06-04T04:09:12.688Z,19.40
2018-06-04T04:11:41.768Z,19.52
2018-06-04T04:14:10.769Z,19.63
2018-06-04T04:16:40.504Z,19.77
2018-06-04T04:19:09.420Z,19.91
2018-06-04T04:21:38.335Z,20.03
2018-06-04T04:24:07.300Z,20.13
2018-06-04T04:26:40.252Z,20.33
2018-06-04T04:29:09.814Z,20.48
2018-06-04T04:31:39.227Z,20.62
2018-06-04T04:34:08.222Z,20.73
2018-06-04T04:36:37.228Z,20.80
2018-06-04T04:39:08.989Z,20.90
2018-06-04T04:41:38.328Z,20.97
2018-06-04T04:44:07.599Z,21.06
2018-06-04T04:46:36.574Z,21.15
2018-06-04T04:49:05.742Z,21.23
2018-06-04T04:51:34.705Z,21.29
2018-06-04T04:54:03.715Z,21.46
2018-06-04T04:56:32.721Z,21.65
2018-06-04T04:59:01.713Z,21.78
2018-06-04T05:01:30.651Z,21.95
2018-06-04T05:04:00.504Z,22.08
2018-06-04T05:06:29.500Z,22.30
2018-06-04T05:08:59.407Z,22.61
2018-06-04T05:11:28.541Z,22.86
2018-06-04T05:13:57.700Z,23.16
2018-06-04T05:16:28.397Z,23.47
2018-06-04T05:18:57.587Z,23.61
2018-06-04T05:21:27.038Z,23.73
2018-06-04T05:23:55.954Z,23.89
2018-06-04T05:26:25.377Z,24.10
2018-06-04T05:28:54.429Z,24.29
2018-06-04T05:31:23.425Z,24.41
2018-06-04T05:33:53.077Z,24.59
2018-06-04T05:36:22.083Z,24.75
2018-06-04T05:38:51.083Z,24.86
2018-06-04T05:41:20.385Z,24.81
2018-06-04T05:43:49.376Z,24.60
2018-06-04T05:46:18.287Z,24.53
2018-06-04T05:48:48.134Z,24.47
2018-06-04T05:51:17.120Z,24.36
2018-06-04T05:53:46.059Z,24.16
2018-06-04T05:56:15.138Z,23.96
2018-06-04T05:58:44.290Z,23.84
2018-06-04T06:01:13.227Z,23.91
2018-06-04T06:03:42.426Z,24.06
2018-06-04T06:06:11.437Z,24.36
2018-06-04T06:08:40.568Z,24.60
2018-06-04T06:11:09.557Z,24.39
2018-06-04T06:13:38.523Z,24.31
2018-06-04T06:16:07.565Z,24.29
2018-06-04T06:18:37.368Z,24.39
2018-06-04T06:21:06.489Z,24.72
2018-06-04T06:23:36.255Z,25.10
2018-06-04T06:26:05.588Z,25.19
2018-06-04T06:28:35.398Z,25.18
2018-06-04T06:31:04.335Z,25.37
2018-06-04T06:33:33.368Z,25.69
2018-06-04T06:36:02.304Z,25.94
2018-06-04T06:38:31.355Z,26.23
2018-06-04T06:41:00.424Z,26.50
2018-06-04T06:43:29.374Z,26.76
2018-06-04T06:45:59.104Z,27.03
2018-06-04T06:48:28.422Z,27.37
2018-06-04T06:50:57.374Z,27.67
2018-06-04T06:53:27.077Z,27.90
2018-06-04T06:55:56.887Z,28.05
2018-06-04T06:58:26.751Z,28.24
2018-06-04T07:00:55.731Z,28.27
2018-06-04T07:03:25.220Z,28.20
2018-06-04T07:05:54.241Z,28.27
2018-06-04T07:08:23.294Z,28.44
2018-06-04T07:10:52.352Z,28.60
2018-06-04T07:13:21.247Z,28.45
2018-06-04T07:15:50.192Z,28.22
2018-06-04T07:18:19.206Z,28.24
2018-06-04T07:20:49.015Z,28.13
2018-06-04T07:23:18.052Z,28.18
2018-06-04T07:25:47.636Z,28.40
2018-06-04T07:28:16.601Z,28.18
2018-06-04T07:30:45.913Z,28.20
2018-06-04T07:33:14.994Z,28.16
2018-06-04T07:35:43.933Z,28.20
2018-06-04T07:38:12.835Z,28.36
2018-06-04T07:40:43.103Z,28.22
2018-06-04T07:43:12.061Z,28.00
2018-06-04T07:45:40.972Z,28.03
2018-06-04T07:48:10.035Z,28.33
2018-06-04T07:50:38.896Z,28.51
2018-06-04T07:53:07.764Z,28.74
2018-06-04T07:55:36.749Z,28.78
2018-06-04T07:58:05.685Z,29.04
2018-06-04T08:00:35.396Z,29.28
2018-06-04T08:03:04.564Z,29.38
2018-06-04T08:05:34.142Z,29.62
2018-06-04T08:08:03.068Z,29.96
2018-06-04T08:10:33.054Z,30.27
2018-06-04T08:13:02.051Z,30.49
2018-06-04T08:15:31.009Z,30.49
2018-06-04T08:18:00.122Z,30.65
2018-06-04T08:20:29.044Z,30.72
2018-06-04T08:22:57.971Z,30.79
2018-06-04T08:25:27.153Z,30.76
2018-06-04T08:27:56.072Z,30.71
2018-06-04T08:30:25.088Z,30.76
2018-06-04T08:32:54.169Z,30.71
2018-06-04T08:35:23.100Z,30.58
2018-06-04T08:37:52.173Z,30.36
2018-06-04T08:40:21.247Z,30.44
2018-06-04T08:42:50.203Z,30.62
2018-06-04T08:45:19.147Z,30.74
2018-06-04T08:47:48.193Z,31.01
2018-06-04T08:50:17.149Z,31.36
2018-06-04T08:52:46.473Z,31.60
2018-06-04T08:55:16.735Z,31.82
2018-06-04T08:57:45.716Z,31.94
2018-06-04T09:00:14.760Z,32.01
2018-06-04T09:02:44.476Z,31.68
2018-06-04T09:05:13.386Z,31.71
2018-06-04T09:07:43.059Z,31.81
2018-06-04T09:10:12.131Z,31.74
2018-06-04T09:12:41.082Z,31.85
2018-06-04T09:15:10.067Z,31.89
2018-06-04T09:17:40.295Z,31.92
2018-06-04T09:20:09.315Z,32.07
2018-06-04T09:22:38.298Z,32.10
2018-06-04T09:25:07.301Z,32.18
2018-06-04T09:27:36.391Z,32.42
2018-06-04T09:30:06.590Z,32.32
2018-06-04T09:32:35.565Z,32.28
2018-06-04T09:35:04.563Z,32.04
2018-06-04T09:37:33.738Z,31.96
2018-06-04T09:40:02.807Z,31.85
2018-06-04T09:42:32.340Z,31.99
2018-06-04T09:45:01.341Z,31.92
2018-06-04T09:47:30.930Z,31.92
2018-06-04T09:50:00.521Z,31.76
2018-06-04T09:52:29.485Z,31.54
2018-06-04T09:54:58.434Z,31.55
2018-06-04T09:57:27.598Z,31.26
2018-06-04T09:59:56.612Z,31.44
2018-06-04T10:02:25.646Z,31.63
2018-06-04T10:04:54.641Z,31.85
2018-06-04T10:07:23.597Z,31.94
2018-06-04T10:09:52.514Z,31.75
2018-06-04T10:12:22.086Z,31.52
2018-06-04T10:14:51.078Z,31.20
2018-06-04T10:17:20.093Z,31.24
2018-06-04T10:19:49.111Z,31.32
2018-06-04T10:22:18.137Z,31.14
2018-06-04T10:24:47.119Z,30.91
2018-06-04T10:27:16.203Z,30.75
2018-06-04T10:29:45.254Z,30.63
2018-06-04T10:32:14.331Z,30.59
2018-06-04T10:34:54.112Z,30.56
2018-06-04T10:37:23.726Z,30.35
2018-06-04T10:39:54.644Z,30.19
2018-06-04T10:42:24.962Z,30.01
2018-06-04T10:44:53.982Z,29.80
2018-06-04T10:47:23.480Z,29.47
2018-06-04T10:49:55.633Z,29.43
2018-06-04T10:52:30.463Z,29.58
2018-06-04T10:54:59.486Z,29.56
2018-06-04T10:57:28.474Z,29.15
2018-06-04T11:00:08.452Z,29.04
2018-06-04T11:02:37.881Z,29.01
2018-06-04T11:05:06.868Z,29.16
2018-06-04T11:07:35.879Z,29.25
2018-06-04T11:10:04.928Z,29.25
2018-06-04T11:12:34.549Z,29.23
2018-06-04T11:15:03.735Z,29.25
2018-06-04T11:17:32.745Z,29.26
2018-06-04T11:20:02.374Z,29.31
2018-06-04T11:22:33.197Z,29.37
2018-06-04T11:25:05.392Z,29.42
2018-06-04T11:27:37.945Z,29.42
2018-06-04T11:30:07.182Z,29.22
2018-06-04T11:32:36.973Z,29.00
2018-06-04T11:35:05.997Z,28.88
2018-06-04T11:37:35.006Z,28.62
2018-06-04T11:40:04.255Z,28.44
2018-06-04T11:42:33.193Z,28.18
2018-06-04T11:45:02.155Z,27.96
2018-06-04T11:47:31.296Z,27.77
2018-06-04T11:50:00.219Z,27.62
2018-06-04T11:52:29.233Z,27.52
2018-06-04T11:54:58.280Z,27.50
2018-06-04T11:57:27.289Z,27.54
2018-06-04T11:59:56.278Z,27.57
2018-06-04T12:02:25.311Z,27.62
2018-06-04T12:04:54.303Z,27.61
2018-06-04T12:07:23.703Z,27.65
2018-06-04T12:09:52.678Z,27.68
2018-06-04T12:12:21.663Z,27.62
2018-06-04T12:14:50.693Z,27.51
2018-06-04T12:17:19.675Z,27.41
2018-06-04T12:19:49.435Z,27.35
2018-06-04T12:22:18.403Z,27.28
2018-06-04T12:24:47.426Z,27.04
2018-06-04T12:27:16.397Z,26.76
2018-06-04T12:29:45.952Z,26.63
2018-06-04T12:32:15.129Z,26.45
2018-06-04T12:34:44.636Z,26.31
2018-06-04T12:37:13.591Z,26.20
2018-06-04T12:39:42.725Z,26.21
2018-06-04T12:42:11.760Z,26.43
2018-06-04T12:44:41.541Z,26.74
2018-06-04T12:47:10.548Z,27.15
2018-06-04T12:49:42.776Z,27.60
2018-06-04T12:52:12.932Z,28.02
2018-06-04T12:54:41.945Z,28.43
2018-06-04T12:57:11.005Z,28.67
2018-06-04T12:59:41.065Z,28.78
2018-06-04T13:02:10.833Z,28.89
2018-06-04T13:04:39.877Z,28.94
2018-06-04T13:07:08.941Z,29.03
2018-06-04T13:09:38.050Z,29.15
2018-06-04T13:12:07.049Z,29.20
2018-06-04T13:14:36.098Z,29.28
2018-06-04T13:17:05.180Z,29.29
2018-06-04T13:19:34.217Z,29.29
2018-06-04T13:22:03.309Z,29.31
2018-06-04T13:24:32.288Z,29.41
2018-06-04T13:27:01.247Z,29.47
2018-06-04T13:29:30.518Z,29.50
2018-06-04T13:31:59.527Z,29.42
2018-06-04T13:34:28.662Z,29.24
2018-06-04T13:36:57.884Z,29.14
2018-06-04T13:39:27.014Z,28.84
2018-06-04T13:41:56.072Z,28.49
2018-06-04T13:44:25.182Z,28.15
2018-06-04T13:46:54.219Z,27.80
2018-06-04T13:49:24.271Z,27.55
2018-06-04T13:51:53.308Z,27.42
2018-06-04T13:54:22.327Z,27.42
2018-06-04T13:56:51.257Z,27.42
2018-06-04T13:59:20.461Z,27.22
2018-06-04T14:01:49.490Z,26.63
2018-06-04T14:04:18.531Z,25.96
2018-06-04T14:06:47.567Z,25.68
2018-06-04T14:09:16.732Z,25.48
2018-06-04T14:11:45.631Z,25.22
2018-06-04T14:14:14.710Z,25.09
2018-06-04T14:16:43.684Z,25.07
2018-06-04T14:19:12.696Z,25.02
2018-06-04T14:21:41.875Z,25.03
2018-06-04T14:24:10.857Z,25.18
2018-06-04T14:26:39.813Z,25.34
2018-06-04T14:29:08.900Z,25.45
2018-06-04T14:31:37.896Z,25.54
2018-06-04T14:34:06.857Z,25.62
2018-06-04T14:36:36.064Z,25.69
2018-06-04T14:39:08.465Z,25.76
2018-06-04T14:41:38.796Z,25.90
2018-06-04T14:44:08.747Z,26.00
2018-06-04T14:46:37.690Z,26.06
2018-06-04T14:49:06.795Z,26.14
2018-06-04T14:51:35.818Z,26.26
2018-06-04T14:54:04.849Z,26.31
2018-06-04T14:56:33.962Z,26.38
2018-06-04T14:59:02.986Z,26.47
2018-06-04T15:01:32.039Z,26.57
2018-06-04T15:04:01.128Z,26.60
2018-06-04T15:06:30.286Z,26.63
2018-06-04T15:09:00.006Z,26.67
2018-06-04T15:11:29.072Z,26.68
2018-06-04T15:13:58.097Z,26.70
2018-06-04T15:16:27.103Z,26.75
2018-06-04T15:18:56.337Z,26.78
2018-06-04T15:21:25.281Z,26.77
2018-06-04T15:23:54.383Z,26.79
2018-06-04T15:26:23.461Z,26.77
2018-06-04T15:28:52.395Z,26.73
2018-06-04T15:31:22.107Z,26.70
2018-06-04T15:33:51.238Z,26.72
2018-06-04T15:36:20.260Z,26.71
2018-06-04T15:38:49.346Z,26.66
2018-06-04T15:41:18.532Z,26.63
2018-06-04T15:43:47.641Z,26.61
2018-06-04T15:46:16.685Z,26.58
2018-06-04T15:48:47.503Z,26.58
2018-06-04T15:51:17.823Z,26.61
2018-06-04T15:53:46.789Z,26.57
2018-06-04T15:56:15.859Z,26.59
2018-06-04T15:58:44.834Z,26.59
2018-06-04T16:01:14.728Z,26.59
2018-06-04T16:03:43.766Z,26.60
2018-06-04T16:06:13.827Z,26.60
2018-06-04T16:08:42.827Z,26.59
2018-06-04T16:11:11.920Z,26.58
2018-06-04T16:13:40.909Z,26.57
2018-06-04T16:16:09.905Z,26.54
2018-06-04T16:18:39.512Z,26.51
2018-06-04T16:21:08.699Z,26.47
2018-06-04T16:23:39.120Z,26.47
2018-06-04T16:26:08.236Z,26.46
2018-06-04T16:28:37.428Z,26.45
2018-06-04T16:31:06.431Z,26.41
2018-06-04T16:33:35.496Z,26.41
2018-06-04T16:36:04.577Z,26.41
2018-06-04T16:38:33.579Z,26.43
2018-06-04T16:41:02.689Z,26.36
2018-06-04T16:43:31.764Z,26.35
2018-06-04T16:46:00.799Z,26.35
2018-06-04T16:48:29.851Z,26.34
2018-06-04T16:50:58.863Z,26.34
2018-06-04T16:53:28.054Z,26.33
2018-06-04T16:55:57.766Z,26.33
2018-06-04T16:58:27.594Z,26.30
2018-06-04T17:00:56.577Z,26.22
2018-06-04T17:03:25.586Z,26.17
2018-06-04T17:05:54.642Z,26.11
2018-06-04T17:08:23.732Z,25.93
2018-06-04T17:10:52.687Z,25.83
2018-06-04T17:13:21.743Z,25.70
2018-06-04T17:15:50.828Z,25.61
2018-06-04T17:18:20.487Z,25.46
2018-06-04T17:20:50.450Z,25.35
2018-06-04T17:23:19.681Z,25.17
2018-06-04T17:25:48.984Z,24.98
2018-06-04T17:28:18.025Z,24.78
2018-06-04T17:30:47.009Z,24.61
2018-06-04T17:33:15.947Z,24.44
2018-06-04T17:35:45.920Z,24.37
2018-06-04T17:38:14.896Z,24.26
2018-06-04T17:40:43.845Z,24.17
2018-06-04T17:43:13.047Z,24.10
2018-06-04T17:45:41.975Z,24.00
2018-06-04T17:48:10.994Z,23.93
2018-06-04T17:50:40.077Z,23.86
2018-06-04T17:53:09.690Z,23.77
2018-06-04T17:55:38.741Z,23.69
2018-06-04T17:58:07.861Z,23.63
2018-06-04T18:00:36.910Z,23.63
2018-06-04T18:03:06.539Z,23.62
2018-06-04T18:05:35.609Z,23.58
2018-06-04T18:08:04.599Z,23.57
2018-06-04T18:10:33.618Z,23.56
2018-06-04T18:13:03.429Z,23.58
2018-06-04T18:15:32.324Z,23.57
2018-06-04T18:18:01.338Z,23.52
2018-06-04T18:20:33.041Z,23.47
2018-06-04T18:23:03.784Z,23.46
2018-06-04T18:25:35.240Z,23.46
2018-06-04T18:28:06.739Z,23.47
2018-06-04T18:30:37.412Z,23.50
2018-06-04T18:33:07.791Z,23.49
2018-06-04T18:35:39.043Z,23.47
2018-06-04T18:38:09.480Z,23.46
2018-06-04T18:40:40.568Z,23.47
2018-06-04T18:43:12.227Z,23.43
2018-06-04T18:45:44.183Z,23.43
2018-06-04T18:48:13.216Z,23.43
2018-06-04T18:50:42.185Z,23.36
2018-06-04T18:53:11.136Z,23.15
2018-06-04T18:55:40.124Z,23.07
2018-06-04T18:58:09.077Z,23.07
2018-06-04T19:00:38.065Z,23.02
2018-06-04T19:03:07.251Z,22.92
2018-06-04T19:05:37.008Z,22.83
2018-06-04T19:08:06.031Z,22.83
2018-06-04T19:10:35.085Z,22.81
2018-06-04T19:13:04.218Z,22.81
2018-06-04T19:15:33.280Z,22.81
2018-06-04T19:18:02.212Z,22.80
2018-06-04T19:20:31.182Z,22.76
2018-06-04T19:23:00.182Z,22.71
2018-06-04T19:25:29.504Z,22.64
2018-06-04T19:28:02.125Z,22.57
2018-06-04T19:30:33.705Z,22.57
2018-06-04T19:33:02.805Z,22.58
2018-06-04T19:35:32.693Z,22.57
2018-06-04T19:38:01.731Z,22.56
2018-06-04T19:40:30.857Z,22.51
2018-06-04T19:42:59.867Z,22.50
2018-06-04T19:45:28.829Z,22.48
2018-06-04T19:47:58.808Z,22.50
2018-06-04T19:50:27.813Z,22.42
2018-06-04T19:52:56.809Z,22.33
2018-06-04T19:55:25.961Z,22.26
2018-06-04T19:57:54.931Z,22.17
2018-06-04T20:00:24.479Z,22.14
2018-06-04T20:02:53.425Z,22.03
2018-06-04T20:05:22.391Z,21.87
2018-06-04T20:07:51.359Z,21.81
2018-06-04T20:10:20.414Z,21.73
2018-06-04T20:12:50.026Z,21.60
2018-06-04T20:15:18.964Z,21.45
2018-06-04T20:17:47.993Z,21.33
2018-06-04T20:20:16.973Z,21.21
2018-06-04T20:22:45.879Z,21.04
2018-06-04T20:25:15.263Z,20.98
2018-06-04T20:27:44.221Z,20.90
2018-06-04T20:30:13.810Z,20.81
2018-06-04T20:32:42.840Z,20.76
2018-06-04T20:35:14.875Z,20.67
2018-06-04T20:37:43.827Z,20.54
2018-06-04T20:40:12.792Z,20.46
2018-06-04T20:42:41.726Z,20.40
2018-06-04T20:45:10.840Z,20.34
2018-06-04T20:47:40.091Z,20.26
2018-06-04T20:50:09.101Z,20.16
2018-06-04T20:52:38.159Z,20.12
2018-06-04T20:55:07.139Z,20.11
2018-06-04T20:57:36.109Z,20.08
2018-06-04T21:00:06.441Z,20.07
2018-06-04T21:02:35.449Z,20.05
2018-06-04T21:05:04.383Z,20.12
2018-06-04T21:07:33.367Z,20.13
2018-06-04T21:10:03.259Z,20.13
2018-06-04T21:12:33.162Z,20.13
2018-06-04T21:15:02.113Z,20.11
2018-06-04T21:17:31.026Z,20.12
2018-06-04T21:20:00.126Z,20.08
2018-06-04T21:22:29.079Z,20.15
2018-06-04T21:24:58.081Z,20.07
2018-06-04T21:27:27.690Z,20.03
2018-06-04T21:29:56.690Z,20.00
2018-06-04T21:32:25.640Z,19.96
2018-06-04T21:34:54.602Z,19.94
2018-06-04T21:37:23.585Z,19.91
2018-06-04T21:39:52.496Z,19.94
2018-06-04T21:42:21.473Z,19.90
2018-06-04T21:44:50.412Z,19.79
2018-06-04T21:47:19.335Z,19.79
2018-06-04T21:49:48.292Z,19.72
2018-06-04T21:52:17.704Z,19.68
2018-06-04T21:54:46.608Z,19.71
2018-06-04T21:57:15.762Z,19.74
2018-06-04T21:59:44.688Z,19.79
2018-06-04T22:02:14.298Z,19.84
2018-06-04T22:04:43.276Z,19.89
2018-06-04T22:07:12.446Z,19.95
2018-06-04T22:09:41.369Z,19.96
2018-06-04T22:12:10.311Z,19.99
2018-06-04T22:14:39.796Z,19.99
2018-06-04T22:17:08.883Z,19.98
2018-06-04T22:19:37.838Z,19.97
2018-06-04T22:22:06.828Z,19.96
2018-06-04T22:24:35.758Z,19.95
2018-06-04T22:27:04.822Z,19.92
2018-06-04T22:29:34.668Z,19.96
2018-06-04T22:32:03.611Z,20.00
2018-06-04T22:34:33.643Z,20.04
2018-06-04T22:37:02.617Z,20.07
2018-06-04T22:39:31.592Z,20.04
2018-06-04T22:42:00.732Z,20.08
2018-06-04T22:44:29.619Z,20.07
2018-06-04T22:46:58.580Z,20.09
2018-06-04T22:49:27.561Z,20.06
2018-06-04T22:51:56.499Z,19.99
2018-06-04T22:54:25.677Z,20.00
2018-06-04T22:56:54.671Z,20.02
2018-06-04T22:59:23.567Z,20.02
2018-06-04T23:01:52.478Z,20.05
2018-06-04T23:04:21.428Z,20.06
2018-06-04T23:06:50.340Z,20.04
2018-06-04T23:09:19.940Z,20.06
2018-06-04T23:11:49.927Z,20.05
2018-06-04T23:14:18.857Z,20.03
2018-06-04T23:16:48.519Z,20.14
2018-06-04T23:19:17.571Z,20.22
2018-06-04T23:21:47.124Z,20.24
2018-06-04T23:24:16.032Z,20.23
2018-06-04T23:26:45.259Z,20.24
2018-06-04T23:29:14.214Z,20.24
2018-06-04T23:31:43.178Z,20.30
2018-06-04T23:34:12.815Z,20.31
2018-06-04T23:36:42.732Z,20.32
2018-06-04T23:39:11.679Z,20.36
2018-06-04T23:41:40.727Z,20.39
2018-06-04T23:44:09.724Z,20.39
2018-06-04T23:46:38.659Z,20.42
2018-06-04T23:49:08.728Z,20.44
2018-06-04T23:51:37.668Z,20.47
2018-06-04T23:54:07.439Z,20.51
2018-06-04T23:56:36.593Z,20.54
2018-06-04T23:59:05.568Z,20.57
